sensor_id;sensor_type;location;lat;lon;timestamp;P1;durP1;ratioP1;P2;durP2;ratioP2
71646;SDS011;59706;45.634;11.704;2023-05-10T11:53:58;8.50;;;4.10;;
71646;SDS011;59706;45.634;11.704;2023-05-10T11:56:26;10.00;;;4.10;;
71646;SDS011;59706;45.634;11.704;2023-05-10T11:59:19;9.70;;;4.20;;
71646;SDS011;59706;45.634;11.704;2023-05-10T12:01:47;7.60;;;3.80;;
71646;SDS011;59706;45.634;11.704;2023-05-10T12:04:14;8.50;;;4.20;;
71646;SDS011;59706;45.634;11.704;2023-05-10T12:06:41;8.30;;;3.50;;
71646;SDS011;59706;45.634;11.704;2023-05-10T12:09:08;7.70;;;3.70;;
71646;SDS011;59706;45.634;11.704;2023-05-10T12:11:38;8.40;;;3.70;;
71646;SDS011;59706;45.634;11.704;2023-05-10T12:14:07;7.30;;;3.80;;
71646;SDS011;59706;45.634;11.704;2023-05-10T12:16:35;8.40;;;3.90;;
71646;SDS011;59706;45.634;11.704;2023-05-10T12:19:03;8.20;;;4.10;;
71646;SDS011;59706;45.634;11.704;2023-05-10T12:21:30;8.70;;;4.00;;
71646;SDS011;59706;45.634;11.704;2023-05-10T12:24:04;7.90;;;3.70;;
71646;SDS011;59706;45.634;11.704;2023-05-10T12:26:31;7.60;;;3.90;;
71646;SDS011;59706;45.634;11.704;2023-05-10T12:29:16;8.30;;;4.30;;
71646;SDS011;59706;45.634;11.704;2023-05-10T12:31:56;9.00;;;3.90;;
71646;SDS011;59706;45.634;11.704;2023-05-10T12:34:30;7.60;;;3.40;;
71646;SDS011;59706;45.634;11.704;2023-05-10T12:36:59;9.60;;;4.30;;
71646;SDS011;59706;45.634;11.704;2023-05-10T12:39:37;9.20;;;4.60;;
71646;SDS011;59706;45.634;11.704;2023-05-10T12:42:08;8.70;;;4.10;;
71646;SDS011;59706;45.634;11.704;2023-05-10T12:44:36;9.60;;;4.70;;
71646;SDS011;59706;45.634;11.704;2023-05-10T12:47:03;9.50;;;4.60;;
71646;SDS011;59706;45.634;11.704;2023-05-10T12:49:30;7.70;;;3.80;;
71646;SDS011;59706;45.634;11.704;2023-05-10T12:51:57;7.80;;;4.00;;
71646;SDS011;59706;45.634;11.704;2023-05-10T12:54:25;8.80;;;4.30;;
71646;SDS011;59706;45.634;11.704;2023-05-10T12:56:53;9.30;;;4.60;;
71646;SDS011;59706;45.634;11.704;2023-05-10T12:59:20;8.50;;;4.40;;
71646;SDS011;59706;45.634;11.704;2023-05-10T13:01:48;9.60;;;4.60;;
71646;SDS011;59706;45.634;11.704;2023-05-10T13:04:16;10.30;;;4.60;;
71646;SDS011;59706;45.634;11.704;2023-05-10T13:06:43;10.30;;;5.30;;
71646;SDS011;59706;45.634;11.704;2023-05-10T13:09:11;9.60;;;4.50;;
71646;SDS011;59706;45.634;11.704;2023-05-10T13:11:38;10.70;;;4.90;;
71646;SDS011;59706;45.634;11.704;2023-05-10T13:14:05;9.50;;;4.90;;
71646;SDS011;59706;45.634;11.704;2023-05-10T13:16:33;9.80;;;4.90;;
71646;SDS011;59706;45.634;11.704;2023-05-10T13:19:01;11.80;;;5.10;;
71646;SDS011;59706;45.634;11.704;2023-05-10T13:21:28;10.50;;;5.40;;
71646;SDS011;59706;45.634;11.704;2023-05-10T13:23:56;10.70;;;4.80;;
71646;SDS011;59706;45.634;11.704;2023-05-10T13:26:23;11.00;;;4.90;;
71646;SDS011;59706;45.634;11.704;2023-05-10T13:28:51;9.30;;;4.50;;
71646;SDS011;59706;45.634;11.704;2023-05-10T13:31:21;7.90;;;4.50;;
71646;SDS011;59706;45.634;11.704;2023-05-10T13:33:48;9.60;;;5.10;;
71646;SDS011;59706;45.634;11.704;2023-05-10T13:36:15;9.90;;;5.40;;
71646;SDS011;59706;45.634;11.704;2023-05-10T13:38:42;9.30;;;5.30;;
71646;SDS011;59706;45.634;11.704;2023-05-10T13:41:10;9.20;;;4.40;;
71646;SDS011;59706;45.634;11.704;2023-05-10T13:43:38;10.10;;;4.90;;
71646;SDS011;59706;45.634;11.704;2023-05-10T13:46:05;10.40;;;5.20;;
71646;SDS011;59706;45.634;11.704;2023-05-10T13:48:33;10.50;;;4.80;;
71646;SDS011;59706;45.634;11.704;2023-05-10T13:51:02;9.70;;;5.20;;
71646;SDS011;59706;45.634;11.704;2023-05-10T13:53:30;9.70;;;4.80;;
71646;SDS011;59706;45.634;11.704;2023-05-10T13:55:57;9.20;;;5.40;;
71646;SDS011;59706;45.634;11.704;2023-05-10T13:58:25;9.90;;;5.10;;
71646;SDS011;59706;45.634;11.704;2023-05-10T14:00:52;9.00;;;4.90;;
71646;SDS011;59706;45.634;11.704;2023-05-10T14:03:19;8.70;;;4.80;;
71646;SDS011;59706;45.634;11.704;2023-05-10T14:05:46;10.80;;;5.30;;
71646;SDS011;59706;45.634;11.704;2023-05-10T14:08:14;10.10;;;5.10;;
71646;SDS011;59706;45.634;11.704;2023-05-10T14:10:41;11.20;;;4.30;;
71646;SDS011;59706;45.634;11.704;2023-05-10T14:13:09;8.60;;;4.10;;
71646;SDS011;59706;45.634;11.704;2023-05-10T14:15:36;8.90;;;4.70;;
71646;SDS011;59706;45.634;11.704;2023-05-10T14:18:04;8.90;;;4.60;;
71646;SDS011;59706;45.634;11.704;2023-05-10T14:20:31;10.40;;;5.30;;
71646;SDS011;59706;45.634;11.704;2023-05-10T14:22:59;10.30;;;5.30;;
71646;SDS011;59706;45.634;11.704;2023-05-10T14:25:26;9.30;;;5.10;;
71646;SDS011;59706;45.634;11.704;2023-05-10T14:27:54;8.30;;;4.50;;
71646;SDS011;59706;45.634;11.704;2023-05-10T14:30:21;8.90;;;4.90;;
71646;SDS011;59706;45.634;11.704;2023-05-10T14:32:48;15.90;;;4.70;;
71646;SDS011;59706;45.634;11.704;2023-05-10T14:35:15;8.00;;;4.00;;
71646;SDS011;59706;45.634;11.704;2023-05-10T14:37:43;9.10;;;4.50;;
71646;SDS011;59706;45.634;11.704;2023-05-10T14:40:11;9.00;;;4.90;;
71646;SDS011;59706;45.634;11.704;2023-05-10T14:42:41;9.30;;;5.20;;
71646;SDS011;59706;45.634;11.704;2023-05-10T14:45:10;10.40;;;4.90;;
71646;SDS011;59706;45.634;11.704;2023-05-10T14:47:38;8.20;;;4.90;;
71646;SDS011;59706;45.634;11.704;2023-05-10T14:50:06;9.30;;;4.50;;
71646;SDS011;59706;45.634;11.704;2023-05-10T14:52:36;9.10;;;4.50;;
71646;SDS011;59706;45.634;11.704;2023-05-10T14:55:04;9.80;;;4.60;;
71646;SDS011;59706;45.634;11.704;2023-05-10T14:57:34;10.60;;;4.70;;
71646;SDS011;59706;45.634;11.704;2023-05-10T15:00:02;8.30;;;4.70;;
71646;SDS011;59706;45.634;11.704;2023-05-10T15:02:30;8.60;;;4.50;;
71646;SDS011;59706;45.634;11.704;2023-05-10T15:04:57;8.10;;;4.50;;
71646;SDS011;59706;45.634;11.704;2023-05-10T15:07:24;8.40;;;4.50;;
71646;SDS011;59706;45.634;11.704;2023-05-10T15:09:51;9.10;;;4.30;;
71646;SDS011;59706;45.634;11.704;2023-05-10T15:12:18;8.10;;;4.40;;
71646;SDS011;59706;45.634;11.704;2023-05-10T15:14:46;7.70;;;4.30;;
71646;SDS011;59706;45.634;11.704;2023-05-10T15:17:13;8.20;;;4.30;;
71646;SDS011;59706;45.634;11.704;2023-05-10T15:19:41;9.00;;;5.20;;
71646;SDS011;59706;45.634;11.704;2023-05-10T15:22:08;8.90;;;5.00;;
71646;SDS011;59706;45.634;11.704;2023-05-10T15:24:34;8.90;;;5.10;;
71646;SDS011;59706;45.634;11.704;2023-05-10T15:27:02;9.00;;;5.50;;
71646;SDS011;59706;45.634;11.704;2023-05-10T15:29:29;8.70;;;5.30;;
71646;SDS011;59706;45.634;11.704;2023-05-10T15:31:57;8.70;;;4.70;;
71646;SDS011;59706;45.634;11.704;2023-05-10T15:34:23;9.00;;;4.70;;
71646;SDS011;59706;45.634;11.704;2023-05-10T15:36:51;9.10;;;4.80;;
71646;SDS011;59706;45.634;11.704;2023-05-10T15:39:18;9.90;;;5.00;;
71646;SDS011;59706;45.634;11.704;2023-05-10T15:41:45;9.30;;;5.10;;
71646;SDS011;59706;45.634;11.704;2023-05-10T15:44:12;9.80;;;5.40;;
71646;SDS011;59706;45.634;11.704;2023-05-10T15:46:39;9.30;;;5.60;;
71646;SDS011;59706;45.634;11.704;2023-05-10T15:49:06;10.20;;;5.40;;
71646;SDS011;59706;45.634;11.704;2023-05-10T15:51:33;8.40;;;5.00;;
71646;SDS011;59706;45.634;11.704;2023-05-10T15:54:00;9.10;;;4.70;;
71646;SDS011;59706;45.634;11.704;2023-05-10T15:56:28;8.70;;;4.70;;
71646;SDS011;59706;45.634;11.704;2023-05-10T15:58:55;10.50;;;5.60;;
71646;SDS011;59706;45.634;11.704;2023-05-10T16:01:22;9.10;;;5.30;;
71646;SDS011;59706;45.634;11.704;2023-05-10T16:03:49;8.90;;;5.10;;
71646;SDS011;59706;45.634;11.704;2023-05-10T16:06:16;9.20;;;5.60;;
71646;SDS011;59706;45.634;11.704;2023-05-10T16:08:44;11.20;;;5.70;;
71646;SDS011;59706;45.634;11.704;2023-05-10T16:11:11;9.00;;;5.30;;
71646;SDS011;59706;45.634;11.704;2023-05-10T16:13:38;9.50;;;4.80;;
71646;SDS011;59706;45.634;11.704;2023-05-10T16:16:07;8.90;;;4.80;;
71646;SDS011;59706;45.634;11.704;2023-05-10T16:18:34;8.00;;;4.80;;
71646;SDS011;59706;45.634;11.704;2023-05-10T16:21:02;9.20;;;4.60;;
71646;SDS011;59706;45.634;11.704;2023-05-10T16:23:29;8.90;;;5.70;;
71646;SDS011;59706;45.634;11.704;2023-05-10T16:25:55;9.20;;;5.10;;
71646;SDS011;59706;45.634;11.704;2023-05-10T16:28:22;9.30;;;5.30;;
71646;SDS011;59706;45.634;11.704;2023-05-10T16:30:50;8.90;;;5.00;;
71646;SDS011;59706;45.634;11.704;2023-05-10T16:33:18;9.50;;;5.00;;
71646;SDS011;59706;45.634;11.704;2023-05-10T16:35:45;8.50;;;4.80;;
71646;SDS011;59706;45.634;11.704;2023-05-10T16:38:12;8.80;;;4.80;;
71646;SDS011;59706;45.634;11.704;2023-05-10T16:40:39;8.10;;;4.10;;
71646;SDS011;59706;45.634;11.704;2023-05-10T16:43:06;8.30;;;4.50;;
71646;SDS011;59706;45.634;11.704;2023-05-10T16:45:34;8.50;;;4.70;;
71646;SDS011;59706;45.634;11.704;2023-05-10T16:48:00;10.40;;;5.00;;
71646;SDS011;59706;45.634;11.704;2023-05-10T16:50:28;8.00;;;4.70;;
71646;SDS011;59706;45.634;11.704;2023-05-10T16:52:55;9.20;;;5.40;;
71646;SDS011;59706;45.634;11.704;2023-05-10T16:55:22;9.10;;;5.60;;
71646;SDS011;59706;45.634;11.704;2023-05-10T16:57:50;9.50;;;5.20;;
71646;SDS011;59706;45.634;11.704;2023-05-10T17:00:17;8.40;;;4.80;;
71646;SDS011;59706;45.634;11.704;2023-05-10T17:02:45;10.40;;;4.60;;
71646;SDS011;59706;45.634;11.704;2023-05-10T17:05:13;9.30;;;4.70;;
71646;SDS011;59706;45.634;11.704;2023-05-10T17:07:39;8.50;;;5.10;;
71646;SDS011;59706;45.634;11.704;2023-05-10T17:10:08;9.00;;;5.50;;
71646;SDS011;59706;45.634;11.704;2023-05-10T17:12:37;8.00;;;4.70;;
71646;SDS011;59706;45.634;11.704;2023-05-10T17:15:06;8.50;;;4.80;;
71646;SDS011;59706;45.634;11.704;2023-05-10T17:17:36;8.40;;;5.50;;
71646;SDS011;59706;45.634;11.704;2023-05-10T17:20:04;8.40;;;4.70;;
71646;SDS011;59706;45.634;11.704;2023-05-10T17:22:34;8.00;;;3.80;;
71646;SDS011;59706;45.634;11.704;2023-05-10T17:25:01;7.10;;;3.90;;
71646;SDS011;59706;45.634;11.704;2023-05-10T17:27:29;8.40;;;4.80;;
71646;SDS011;59706;45.634;11.704;2023-05-10T17:29:56;8.30;;;4.50;;
71646;SDS011;59706;45.634;11.704;2023-05-10T17:32:23;9.00;;;5.20;;
71646;SDS011;59706;45.634;11.704;2023-05-10T17:34:50;9.20;;;5.30;;
71646;SDS011;59706;45.634;11.704;2023-05-10T17:37:17;9.30;;;5.40;;
71646;SDS011;59706;45.634;11.704;2023-05-10T17:39:46;8.70;;;5.00;;
71646;SDS011;59706;45.634;11.704;2023-05-10T17:42:15;8.20;;;4.70;;
71646;SDS011;59706;45.634;11.704;2023-05-10T17:44:43;8.60;;;4.00;;
71646;SDS011;59706;45.634;11.704;2023-05-10T17:47:10;8.60;;;4.60;;
71646;SDS011;59706;45.634;11.704;2023-05-10T17:49:37;8.70;;;5.00;;
71646;SDS011;59706;45.634;11.704;2023-05-10T17:52:04;8.20;;;4.70;;
71646;SDS011;59706;45.634;11.704;2023-05-10T17:54:31;7.80;;;4.90;;
71646;SDS011;59706;45.634;11.704;2023-05-10T17:56:58;9.30;;;5.10;;
71646;SDS011;59706;45.634;11.704;2023-05-10T17:59:26;8.10;;;4.10;;
71646;SDS011;59706;45.634;11.704;2023-05-10T18:01:53;8.50;;;4.10;;
71646;SDS011;59706;45.634;11.704;2023-05-10T18:04:20;8.30;;;4.30;;
71646;SDS011;59706;45.634;11.704;2023-05-10T18:06:47;9.40;;;5.20;;
71646;SDS011;59706;45.634;11.704;2023-05-10T18:09:15;10.00;;;5.10;;
71646;SDS011;59706;45.634;11.704;2023-05-10T18:11:42;9.30;;;5.20;;
71646;SDS011;59706;45.634;11.704;2023-05-10T18:14:09;9.10;;;5.00;;
71646;SDS011;59706;45.634;11.704;2023-05-10T18:16:36;10.10;;;4.90;;
71646;SDS011;59706;45.634;11.704;2023-05-10T18:19:04;8.90;;;4.20;;
71646;SDS011;59706;45.634;11.704;2023-05-10T18:21:30;8.10;;;4.00;;
71646;SDS011;59706;45.634;11.704;2023-05-10T18:23:58;7.80;;;4.30;;
71646;SDS011;59706;45.634;11.704;2023-05-10T18:26:25;8.30;;;4.70;;
71646;SDS011;59706;45.634;11.704;2023-05-10T18:28:52;9.10;;;5.10;;
71646;SDS011;59706;45.634;11.704;2023-05-10T18:31:19;8.90;;;5.00;;
71646;SDS011;59706;45.634;11.704;2023-05-10T18:33:47;8.30;;;4.40;;
71646;SDS011;59706;45.634;11.704;2023-05-10T18:36:14;8.40;;;4.70;;
71646;SDS011;59706;45.634;11.704;2023-05-10T18:38:41;7.50;;;3.90;;
71646;SDS011;59706;45.634;11.704;2023-05-10T18:41:08;7.80;;;3.90;;
71646;SDS011;59706;45.634;11.704;2023-05-10T18:43:37;7.70;;;3.90;;
71646;SDS011;59706;45.634;11.704;2023-05-10T18:46:04;7.60;;;4.40;;
71646;SDS011;59706;45.634;11.704;2023-05-10T18:48:31;8.10;;;4.30;;
71646;SDS011;59706;45.634;11.704;2023-05-10T18:50:58;7.80;;;4.30;;
71646;SDS011;59706;45.634;11.704;2023-05-10T18:53:25;7.80;;;4.60;;
71646;SDS011;59706;45.634;11.704;2023-05-10T18:55:56;7.50;;;4.40;;
71646;SDS011;59706;45.634;11.704;2023-05-10T18:58:23;7.00;;;3.90;;
71646;SDS011;59706;45.634;11.704;2023-05-10T19:01:11;7.40;;;3.40;;
71646;SDS011;59706;45.634;11.704;2023-05-10T19:03:38;5.80;;;3.00;;
71646;SDS011;59706;45.634;11.704;2023-05-10T19:06:05;6.90;;;3.50;;
71646;SDS011;59706;45.634;11.704;2023-05-10T19:08:34;10.40;;;3.60;;
71646;SDS011;59706;45.634;11.704;2023-05-10T19:11:02;8.10;;;4.00;;
71646;SDS011;59706;45.634;11.704;2023-05-10T19:13:29;8.20;;;4.40;;
71646;SDS011;59706;45.634;11.704;2023-05-10T19:16:13;7.40;;;4.20;;
71646;SDS011;59706;45.634;11.704;2023-05-10T19:19:08;6.70;;;3.30;;
71646;SDS011;59706;45.634;11.704;2023-05-10T19:21:37;6.60;;;3.40;;
71646;SDS011;59706;45.634;11.704;2023-05-10T19:24:06;7.30;;;3.00;;
71646;SDS011;59706;45.634;11.704;2023-05-10T19:26:37;8.40;;;3.50;;
71646;SDS011;59706;45.634;11.704;2023-05-10T19:29:06;7.10;;;3.90;;
71646;SDS011;59706;45.634;11.704;2023-05-10T19:31:32;7.20;;;3.80;;
71646;SDS011;59706;45.634;11.704;2023-05-10T19:34:02;7.10;;;3.20;;
71646;SDS011;59706;45.634;11.704;2023-05-10T19:36:34;7.60;;;3.60;;
71646;SDS011;59706;45.634;11.704;2023-05-10T19:39:03;7.00;;;3.30;;
71646;SDS011;59706;45.634;11.704;2023-05-10T19:41:33;7.40;;;3.50;;
71646;SDS011;59706;45.634;11.704;2023-05-10T19:44:05;9.10;;;3.20;;
71646;SDS011;59706;45.634;11.704;2023-05-10T19:46:33;7.00;;;3.40;;
71646;SDS011;59706;45.634;11.704;2023-05-10T19:49:01;6.60;;;3.30;;
71646;SDS011;59706;45.634;11.704;2023-05-10T19:51:29;6.80;;;3.40;;
71646;SDS011;59706;45.634;11.704;2023-05-10T19:53:57;7.20;;;3.60;;
71646;SDS011;59706;45.634;11.704;2023-05-10T19:56:24;6.10;;;3.00;;
71646;SDS011;59706;45.634;11.704;2023-05-10T19:58:53;6.50;;;2.60;;
71646;SDS011;59706;45.634;11.704;2023-05-10T20:01:23;6.60;;;2.40;;
71646;SDS011;59706;45.634;11.704;2023-05-10T20:03:51;7.40;;;2.80;;
71646;SDS011;59706;45.634;11.704;2023-05-10T20:06:20;7.30;;;3.40;;
71646;SDS011;59706;45.634;11.704;2023-05-10T20:08:47;7.60;;;4.00;;
71646;SDS011;59706;45.634;11.704;2023-05-10T20:11:17;9.20;;;5.10;;
71646;SDS011;59706;45.634;11.704;2023-05-10T20:13:46;8.70;;;4.40;;
71646;SDS011;59706;45.634;11.704;2023-05-10T20:16:17;7.50;;;4.00;;
71646;SDS011;59706;45.634;11.704;2023-05-10T20:18:45;7.60;;;4.40;;
71646;SDS011;59706;45.634;11.704;2023-05-10T20:21:17;8.30;;;3.80;;
71646;SDS011;59706;45.634;11.704;2023-05-10T20:23:47;7.80;;;4.00;;
71646;SDS011;59706;45.634;11.704;2023-05-10T20:26:15;7.70;;;3.80;;
71646;SDS011;59706;45.634;11.704;2023-05-10T20:28:43;9.00;;;3.50;;
71646;SDS011;59706;45.634;11.704;2023-05-10T20:31:11;8.60;;;4.20;;
71646;SDS011;59706;45.634;11.704;2023-05-10T20:33:39;7.90;;;3.80;;
71646;SDS011;59706;45.634;11.704;2023-05-10T20:36:08;8.00;;;3.80;;
71646;SDS011;59706;45.634;11.704;2023-05-10T20:38:35;8.50;;;3.80;;
71646;SDS011;59706;45.634;11.704;2023-05-10T20:41:02;10.10;;;4.90;;
71646;SDS011;59706;45.634;11.704;2023-05-10T20:43:33;11.40;;;5.50;;
71646;SDS011;59706;45.634;11.704;2023-05-10T20:46:00;13.00;;;5.90;;
71646;SDS011;59706;45.634;11.704;2023-05-10T20:48:49;12.00;;;5.10;;
71646;SDS011;59706;45.634;11.704;2023-05-10T20:51:17;8.80;;;3.90;;
71646;SDS011;59706;45.634;11.704;2023-05-10T20:53:44;7.40;;;3.50;;
71646;SDS011;59706;45.634;11.704;2023-05-10T20:56:13;7.90;;;3.20;;
71646;SDS011;59706;45.634;11.704;2023-05-10T20:58:40;7.50;;;3.40;;
71646;SDS011;59706;45.634;11.704;2023-05-10T21:01:07;6.60;;;3.80;;
71646;SDS011;59706;45.634;11.704;2023-05-10T21:03:34;8.60;;;4.60;;
71646;SDS011;59706;45.634;11.704;2023-05-10T21:06:01;7.70;;;4.10;;
71646;SDS011;59706;45.634;11.704;2023-05-10T21:08:28;7.70;;;3.70;;
71646;SDS011;59706;45.634;11.704;2023-05-10T21:10:56;8.90;;;3.60;;
71646;SDS011;59706;45.634;11.704;2023-05-10T21:13:22;6.50;;;3.10;;
71646;SDS011;59706;45.634;11.704;2023-05-10T21:15:49;8.40;;;3.30;;
71646;SDS011;59706;45.634;11.704;2023-05-10T21:18:17;6.90;;;3.20;;
71646;SDS011;59706;45.634;11.704;2023-05-10T21:20:44;6.90;;;3.00;;
71646;SDS011;59706;45.634;11.704;2023-05-10T21:23:11;8.10;;;4.00;;
71646;SDS011;59706;45.634;11.704;2023-05-10T21:25:38;7.00;;;2.60;;
71646;SDS011;59706;45.634;11.704;2023-05-10T21:28:04;7.30;;;2.90;;
71646;SDS011;59706;45.634;11.704;2023-05-10T21:30:32;6.30;;;2.70;;
71646;SDS011;59706;45.634;11.704;2023-05-10T21:32:59;6.40;;;2.90;;
71646;SDS011;59706;45.634;11.704;2023-05-10T21:35:28;6.60;;;2.60;;
71646;SDS011;59706;45.634;11.704;2023-05-10T21:37:55;6.20;;;2.30;;
71646;SDS011;59706;45.634;11.704;2023-05-10T21:40:22;5.80;;;2.20;;
71646;SDS011;59706;45.634;11.704;2023-05-10T21:42:50;5.10;;;2.10;;
71646;SDS011;59706;45.634;11.704;2023-05-10T21:45:18;4.50;;;1.50;;
71646;SDS011;59706;45.634;11.704;2023-05-10T21:47:47;4.90;;;1.30;;
71646;SDS011;59706;45.634;11.704;2023-05-10T21:50:14;4.70;;;1.40;;
71646;SDS011;59706;45.634;11.704;2023-05-10T21:52:41;4.70;;;1.30;;
71646;SDS011;59706;45.634;11.704;2023-05-10T21:55:10;4.00;;;1.30;;
71646;SDS011;59706;45.634;11.704;2023-05-10T21:57:37;4.70;;;1.60;;
71646;SDS011;59706;45.634;11.704;2023-05-10T22:03:16;4.20;;;1.40;;
71646;SDS011;59706;45.634;11.704;2023-05-10T22:05:43;4.10;;;1.20;;
71646;SDS011;59706;45.634;11.704;2023-05-10T22:08:10;4.10;;;1.40;;
71646;SDS011;59706;45.634;11.704;2023-05-10T22:10:38;4.20;;;1.50;;
71646;SDS011;59706;45.634;11.704;2023-05-10T22:13:05;4.80;;;1.40;;
71646;SDS011;59706;45.634;11.704;2023-05-10T22:15:32;5.70;;;1.90;;
71646;SDS011;59706;45.634;11.704;2023-05-10T22:18:00;6.10;;;2.00;;
71646;SDS011;59706;45.634;11.704;2023-05-10T22:20:27;5.70;;;2.30;;
71646;SDS011;59706;45.634;11.704;2023-05-10T22:22:55;6.50;;;2.00;;
71646;SDS011;59706;45.634;11.704;2023-05-10T22:25:22;6.50;;;2.30;;
71646;SDS011;59706;45.634;11.704;2023-05-10T22:27:50;6.00;;;2.20;;
71646;SDS011;59706;45.634;11.704;2023-05-10T22:30:18;7.30;;;3.00;;
71646;SDS011;59706;45.634;11.704;2023-05-10T22:32:45;7.40;;;2.80;;
71646;SDS011;59706;45.634;11.704;2023-05-10T22:35:13;5.80;;;2.40;;
71646;SDS011;59706;45.634;11.704;2023-05-10T22:37:40;5.90;;;1.90;;
71646;SDS011;59706;45.634;11.704;2023-05-10T22:40:10;5.50;;;2.10;;
71646;SDS011;59706;45.634;11.704;2023-05-10T22:42:39;6.70;;;1.80;;
71646;SDS011;59706;45.634;11.704;2023-05-10T22:45:09;5.30;;;1.90;;
71646;SDS011;59706;45.634;11.704;2023-05-10T22:47:37;5.10;;;1.90;;
71646;SDS011;59706;45.634;11.704;2023-05-10T22:50:06;6.20;;;1.90;;
71646;SDS011;59706;45.634;11.704;2023-05-10T22:52:36;4.90;;;1.60;;
71646;SDS011;59706;45.634;11.704;2023-05-10T22:55:05;4.90;;;1.60;;
71646;SDS011;59706;45.634;11.704;2023-05-10T22:57:33;5.10;;;1.70;;
71646;SDS011;59706;45.634;11.704;2023-05-10T23:00:00;4.80;;;1.80;;
71646;SDS011;59706;45.634;11.704;2023-05-10T23:02:29;5.40;;;1.80;;
71646;SDS011;59706;45.634;11.704;2023-05-10T23:04:57;6.40;;;2.10;;
71646;SDS011;59706;45.634;11.704;2023-05-10T23:07:24;5.70;;;1.50;;
71646;SDS011;59706;45.634;11.704;2023-05-10T23:09:51;4.80;;;1.50;;
71646;SDS011;59706;45.634;11.704;2023-05-10T23:12:19;6.00;;;1.20;;
71646;SDS011;59706;45.634;11.704;2023-05-10T23:14:47;5.40;;;1.20;;
71646;SDS011;59706;45.634;11.704;2023-05-10T23:17:15;4.20;;;0.90;;
71646;SDS011;59706;45.634;11.704;2023-05-10T23:19:43;3.50;;;0.70;;
71646;SDS011;59706;45.634;11.704;2023-05-10T23:22:10;3.60;;;0.80;;
71646;SDS011;59706;45.634;11.704;2023-05-10T23:24:38;4.30;;;1.40;;
71646;SDS011;59706;45.634;11.704;2023-05-10T23:27:05;3.40;;;1.00;;
71646;SDS011;59706;45.634;11.704;2023-05-10T23:29:33;3.70;;;1.00;;
71646;SDS011;59706;45.634;11.704;2023-05-10T23:32:00;3.60;;;0.90;;
71646;SDS011;59706;45.634;11.704;2023-05-10T23:34:28;3.60;;;0.80;;
71646;SDS011;59706;45.634;11.704;2023-05-10T23:36:55;3.10;;;0.70;;
71646;SDS011;59706;45.634;11.704;2023-05-10T23:39:23;3.40;;;0.70;;
71646;SDS011;59706;45.634;11.704;2023-05-10T23:41:50;2.80;;;0.80;;
71646;SDS011;59706;45.634;11.704;2023-05-10T23:44:18;3.10;;;0.80;;
71646;SDS011;59706;45.634;11.704;2023-05-10T23:46:45;4.40;;;1.00;;
71646;SDS011;59706;45.634;11.704;2023-05-10T23:49:13;4.00;;;0.90;;
71646;SDS011;59706;45.634;11.704;2023-05-10T23:51:40;3.30;;;0.90;;
71646;SDS011;59706;45.634;11.704;2023-05-10T23:54:08;3.10;;;0.80;;
71646;SDS011;59706;45.634;11.704;2023-05-10T23:56:35;2.80;;;0.60;;
71646;SDS011;59706;45.634;11.704;2023-05-10T23:59:03;3.20;;;0.90;;
